EDDG

Münster Osnabrück Airport

Münster, Germany
METAR EDDG 191050Z 21012KT 170V250 9999 BKN041 SCT300 25/14 Q1016 TEMPO 23015G25KT
Observed Flight Rules
Sep-19 @ 10:50 UTC (11 minutes ago) Visual Flight Rules
Wind Visibility Clouds
210° at 12 knots 10,000+ meters
  • Broken at 4,100' AGL
  • Scattered at 30,000' AGL
Temperatures Readings
Current 25°C / 77°F
Dewpoint 14°C / 57°F
Humidity 51%
Altimeter 30" Hg
Pressure 1016 hPa
Elevation 52
METAR EDDG 191050Z 21012KT 170V250 9999 BKN041 SCT300 25/14 Q1016 TEMPO 23015G25KT
Observed Flight Rules
Sep-19 @ 10:50 UTC
(11 minutes ago)
VFR
Wind Visibility
210° at 12 knots 10,000+ meters
Clouds
  • Broken at 4,100' AGL
  • Scattered at 30,000' AGL
Temperature Dewpoint
25°C / 77°F 14°C / 57°F
Humidity Altimeter Pressure
51% 30" Hg 1016 hPa